Terminal Aerodrome Forecast
Issued by NWS

Current Version | Previous Version | Text Only | Print | Product List | Glossary On
Versions: 1 2 3 4 5 6 7 8 9 10 11 12 13 14 15 16 17
000
FTUS43 KAPX 201700 CCA
TAFTVC
TAF COR
KTVC 201747Z 2018/2118 22010G18KT P6SM SCT050 BKN120
      TEMPO 2018/2019 TSRA BKN035CB
     FM202000 23010G17KT P6SM VCSH OVC025
     FM210300 32004KT P6SM VCSH BKN035
     FM210900 01004KT P6SM OVC015
     FM211400 36010G17KT P6SM BKN028=

USA.gov is the U.S. government's official web portal to all federal, state and local government web resources and services.